createdAt,value
2023-07-15T00:01:08.163Z,22.42
2023-07-15T00:03:35.892Z,19.50
2023-07-15T00:06:03.156Z,24.75
2023-07-15T00:08:32.526Z,20.33
2023-07-15T00:10:59.323Z,19.40
2023-07-15T00:13:26.026Z,20.70
2023-07-15T00:15:54.573Z,20.80
2023-07-15T00:18:22.411Z,25.10
2023-07-15T00:20:49.191Z,18.80
2023-07-15T00:23:24.429Z,20.73
2023-07-15T00:25:55.098Z,21.95
2023-07-15T00:28:22.258Z,29.30
2023-07-15T00:30:53.408Z,21.30
2023-07-15T00:33:21.065Z,17.33
2023-07-15T00:35:48.363Z,18.05
2023-07-15T00:38:15.126Z,16.17
2023-07-15T00:40:48.403Z,19.35
2023-07-15T00:43:53.919Z,18.17
2023-07-15T00:46:20.818Z,16.20
2023-07-15T00:48:54.062Z,23.88
2023-07-15T00:51:21.003Z,24.02
2023-07-15T00:53:48.036Z,17.35
2023-07-15T00:56:15.096Z,20.98
2023-07-15T00:58:41.890Z,16.02
2023-07-15T01:01:12.499Z,20.55
2023-07-15T01:03:41.424Z,19.20
2023-07-15T01:06:08.608Z,21.65
2023-07-15T01:08:35.424Z,18.65
2023-07-15T01:11:02.171Z,21.70
2023-07-15T01:13:28.874Z,19.08
2023-07-15T01:15:55.615Z,18.95
2023-07-15T01:18:22.365Z,14.40
2023-07-15T01:20:49.077Z,21.77
2023-07-15T01:23:15.768Z,16.45
2023-07-15T01:25:42.692Z,18.35
2023-07-15T01:28:09.443Z,24.85
2023-07-15T01:30:36.385Z,19.52
2023-07-15T01:33:03.171Z,21.35
2023-07-15T01:35:29.909Z,16.70
2023-07-15T01:37:56.622Z,19.20
2023-07-15T01:40:23.983Z,19.23
2023-07-15T01:42:50.687Z,17.23
2023-07-15T01:45:17.448Z,14.65
2023-07-15T01:47:44.292Z,15.05
2023-07-15T01:50:11.038Z,15.68
2023-07-15T01:52:37.732Z,18.38
2023-07-15T01:55:04.739Z,19.33
2023-07-15T01:57:31.991Z,18.98
2023-07-15T01:59:58.990Z,14.90
2023-07-15T02:02:25.934Z,16.67
2023-07-15T02:04:52.691Z,15.10
2023-07-15T02:07:19.366Z,16.38
2023-07-15T02:09:46.126Z,21.73
2023-07-15T02:12:12.952Z,21.80
2023-07-15T02:14:39.648Z,18.25
2023-07-15T02:17:07.109Z,13.48
2023-07-15T02:19:33.878Z,16.10
2023-07-15T02:22:00.977Z,18.65
2023-07-15T02:24:27.835Z,13.20
2023-07-15T02:26:54.563Z,15.60
2023-07-15T02:29:21.295Z,14.98
2023-07-15T02:31:48.011Z,17.08
2023-07-15T02:34:14.818Z,13.98
2023-07-15T02:36:41.547Z,15.90
2023-07-15T02:39:09.689Z,13.57
2023-07-15T02:41:36.458Z,15.88
2023-07-15T02:44:03.127Z,18.27
2023-07-15T02:46:29.913Z,18.60
2023-07-15T02:48:56.613Z,16.20
2023-07-15T02:51:25.233Z,13.57
2023-07-15T02:53:52.433Z,17.67
2023-07-15T02:56:19.144Z,14.15
2023-07-15T02:58:45.834Z,22.90
2023-07-15T03:01:12.741Z,18.67
2023-07-15T03:03:39.492Z,30.20
2023-07-15T03:06:06.168Z,24.33
2023-07-15T03:08:32.910Z,13.05
2023-07-15T03:10:59.576Z,15.48
2023-07-15T03:13:26.897Z,12.13
2023-07-15T03:15:54.020Z,18.15
2023-07-15T03:18:26.425Z,17.38
2023-07-15T03:20:53.927Z,14.00
2023-07-15T03:23:20.618Z,15.40
2023-07-15T03:25:47.351Z,18.50
2023-07-15T03:28:14.101Z,15.95
2023-07-15T03:30:40.852Z,12.55
2023-07-15T03:33:08.209Z,11.40
2023-07-15T03:35:35.022Z,14.32
2023-07-15T03:38:01.745Z,15.57
2023-07-15T03:40:28.418Z,16.45
2023-07-15T03:42:55.134Z,17.00
2023-07-15T03:45:21.844Z,15.80
2023-07-15T03:47:48.657Z,16.05
2023-07-15T03:50:15.380Z,15.98
2023-07-15T03:52:43.053Z,17.52
2023-07-15T03:55:09.920Z,17.20
2023-07-15T03:57:39.332Z,16.92
2023-07-15T04:00:18.290Z,16.73
2023-07-15T04:02:50.996Z,11.85
2023-07-15T04:05:18.002Z,11.82
2023-07-15T04:07:45.436Z,23.48
2023-07-15T04:10:12.670Z,16.05
2023-07-15T04:12:39.987Z,29.67
2023-07-15T04:15:07.389Z,17.73
2023-07-15T04:17:34.190Z,15.35
2023-07-15T04:20:00.974Z,25.55
2023-07-15T04:22:27.826Z,18.85
2023-07-15T04:24:54.603Z,18.08
2023-07-15T04:27:21.279Z,14.18
2023-07-15T04:29:48.015Z,11.48
2023-07-15T04:32:14.805Z,20.15
2023-07-15T04:34:41.466Z,13.68
2023-07-15T04:37:08.163Z,17.83
2023-07-15T04:39:34.876Z,16.33
2023-07-15T04:42:01.604Z,19.65
2023-07-15T04:44:28.311Z,14.00
2023-07-15T04:46:55.058Z,16.38
2023-07-15T04:49:21.769Z,15.45
2023-07-15T04:51:48.542Z,13.23
2023-07-15T04:54:15.254Z,12.85
2023-07-15T04:56:42.009Z,13.38
2023-07-15T04:59:09.154Z,13.50
2023-07-15T05:01:36.030Z,16.55
2023-07-15T05:04:03.399Z,16.27
2023-07-15T05:06:30.321Z,13.93
2023-07-15T05:08:57.259Z,13.38
2023-07-15T05:11:26.109Z,11.23
2023-07-15T05:13:52.870Z,14.18
2023-07-15T05:16:20.851Z,15.20
2023-07-15T05:21:14.459Z,10.90
2023-07-15T05:23:41.349Z,12.43
2023-07-15T05:26:08.071Z,15.57
2023-07-15T05:28:34.845Z,12.93
2023-07-15T05:31:01.630Z,16.95
2023-07-15T05:33:28.495Z,11.43
2023-07-15T05:35:55.993Z,11.93
2023-07-15T05:38:26.752Z,9.25
2023-07-15T05:40:56.636Z,17.15
2023-07-15T05:43:23.326Z,14.82
2023-07-15T05:45:50.086Z,13.50
2023-07-15T05:48:16.999Z,13.43
2023-07-15T05:50:43.774Z,10.82
2023-07-15T05:53:11.312Z,11.93
2023-07-15T05:55:37.981Z,13.77
2023-07-15T05:58:11.048Z,16.50
2023-07-15T06:00:39.771Z,13.98
2023-07-15T06:03:06.747Z,14.95
2023-07-15T06:05:33.653Z,14.00
2023-07-15T06:08:00.371Z,16.52
2023-07-15T06:10:27.099Z,16.92
2023-07-15T06:12:53.874Z,15.23
2023-07-15T06:15:20.596Z,14.93
2023-07-15T06:17:47.335Z,16.88
2023-07-15T06:20:14.132Z,17.85
2023-07-15T06:22:40.895Z,16.30
2023-07-15T06:25:07.934Z,16.80
2023-07-15T06:27:34.626Z,11.90
2023-07-15T06:30:01.381Z,17.02
2023-07-15T06:32:28.154Z,13.38
2023-07-15T06:34:54.892Z,16.40
2023-07-15T06:37:21.904Z,17.52
2023-07-15T06:39:48.648Z,13.45
2023-07-15T06:42:15.382Z,12.90
2023-07-15T06:44:44.354Z,14.20
2023-07-15T06:47:11.507Z,15.75
2023-07-15T06:49:38.245Z,8.82
2023-07-15T06:52:07.813Z,8.15
2023-07-15T06:54:35.998Z,9.43
2023-07-15T06:57:02.703Z,8.95
2023-07-15T06:59:29.444Z,10.20
2023-07-15T07:01:56.113Z,8.88
2023-07-15T07:04:22.832Z,7.72
2023-07-15T07:06:49.624Z,14.25
2023-07-15T07:09:16.325Z,10.35
2023-07-15T07:11:43.004Z,10.27
2023-07-15T07:14:10.519Z,16.00
2023-07-15T07:16:37.269Z,11.65
2023-07-15T07:19:04.090Z,10.15
2023-07-15T07:21:30.943Z,11.25
2023-07-15T07:23:57.669Z,9.63
2023-07-15T07:26:24.572Z,11.07
2023-07-15T07:28:51.324Z,10.32
2023-07-15T07:31:19.828Z,11.63
2023-07-15T07:33:46.970Z,11.75
2023-07-15T07:36:13.768Z,12.32
2023-07-15T07:38:40.536Z,11.15
2023-07-15T07:41:14.166Z,13.48
2023-07-15T07:43:41.302Z,8.68
2023-07-15T07:46:10.111Z,10.68
2023-07-15T07:48:37.097Z,10.93
2023-07-15T07:51:04.081Z,8.98
2023-07-15T07:53:30.970Z,10.70
2023-07-15T07:55:58.020Z,10.80
2023-07-15T07:58:24.772Z,7.97
2023-07-15T08:00:51.511Z,11.65
2023-07-15T08:03:18.911Z,11.02
2023-07-15T08:05:46.765Z,7.00
2023-07-15T08:08:13.637Z,9.25
2023-07-15T08:10:43.612Z,9.85
2023-07-15T08:13:10.355Z,15.63
2023-07-15T08:15:37.825Z,11.13
2023-07-15T08:20:32.206Z,9.38
2023-07-15T08:22:59.902Z,9.77
2023-07-15T08:25:26.968Z,8.15
2023-07-15T08:27:54.713Z,8.68
2023-07-15T08:30:22.019Z,11.43
2023-07-15T08:32:48.810Z,9.02
2023-07-15T08:35:15.807Z,12.75
2023-07-15T08:37:43.548Z,13.65
2023-07-15T08:40:14.015Z,12.40
2023-07-15T08:42:40.838Z,11.45
2023-07-15T08:45:08.060Z,13.10
2023-07-15T08:47:35.112Z,11.73
2023-07-15T08:50:04.070Z,9.85
2023-07-15T08:52:30.993Z,9.85
2023-07-15T08:54:57.761Z,11.55
2023-07-15T08:57:24.518Z,14.95
2023-07-15T08:59:54.111Z,9.48
2023-07-15T09:02:21.166Z,12.10
2023-07-15T09:04:48.077Z,12.02
2023-07-15T09:07:14.894Z,13.98
2023-07-15T09:09:41.653Z,9.38
2023-07-15T09:12:12.159Z,9.15
2023-07-15T09:14:52.918Z,9.10
2023-07-15T09:17:26.094Z,13.65
2023-07-15T09:19:53.382Z,13.73
2023-07-15T09:22:20.364Z,11.45
2023-07-15T09:24:47.115Z,11.10
2023-07-15T09:27:13.844Z,10.98
2023-07-15T09:29:40.519Z,9.50
2023-07-15T09:32:08.913Z,11.20
2023-07-15T09:34:42.034Z,9.80
2023-07-15T09:37:09.057Z,13.93
2023-07-15T09:39:35.848Z,10.18
2023-07-15T09:42:03.955Z,8.93
2023-07-15T09:44:45.181Z,10.50
2023-07-15T09:47:11.889Z,14.48
2023-07-15T09:49:38.612Z,9.88
2023-07-15T09:52:06.349Z,11.52
2023-07-15T09:54:34.506Z,11.45
2023-07-15T09:57:05.573Z,9.38
2023-07-15T09:59:47.591Z,13.00
2023-07-15T10:02:20.337Z,13.48
2023-07-15T10:04:47.232Z,13.57
2023-07-15T10:07:14.141Z,10.02
2023-07-15T10:09:40.845Z,10.30
2023-07-15T10:12:08.507Z,13.30
2023-07-15T10:17:12.132Z,11.68
2023-07-15T10:19:47.675Z,14.55
2023-07-15T10:22:15.162Z,15.70
2023-07-15T10:24:43.467Z,11.93
2023-07-15T10:27:11.887Z,10.23
2023-07-15T10:29:40.414Z,11.85
2023-07-15T10:32:15.820Z,10.52
2023-07-15T10:34:49.537Z,9.80
2023-07-15T10:37:16.949Z,9.43
2023-07-15T10:39:44.023Z,18.73
2023-07-15T10:42:12.507Z,14.88
2023-07-15T10:44:45.509Z,14.75
2023-07-15T10:47:13.545Z,13.10
2023-07-15T10:49:40.612Z,12.60
2023-07-15T10:52:07.744Z,10.85
2023-07-15T10:54:37.535Z,12.82
2023-07-15T10:57:15.660Z,12.77
2023-07-15T10:59:46.194Z,10.30
2023-07-15T11:02:13.214Z,13.98
2023-07-15T11:04:40.625Z,11.52
2023-07-15T11:07:08.987Z,10.18
2023-07-15T11:09:42.019Z,10.95
2023-07-15T11:12:10.103Z,17.42
2023-07-15T11:14:39.369Z,14.23
2023-07-15T11:17:08.494Z,11.18
2023-07-15T11:19:35.267Z,9.80
2023-07-15T11:22:06.317Z,11.52
2023-07-15T11:24:33.005Z,10.32
2023-07-15T11:27:02.839Z,10.93
2023-07-15T11:29:29.667Z,14.55
2023-07-15T11:31:57.412Z,12.30
2023-07-15T11:34:27.872Z,12.48
2023-07-15T11:36:55.181Z,14.40
2023-07-15T11:39:22.100Z,11.35
2023-07-15T11:41:50.475Z,12.90
2023-07-15T11:44:20.228Z,15.32
2023-07-15T11:46:47.227Z,13.35
2023-07-15T11:49:19.660Z,11.07
2023-07-15T11:51:46.346Z,16.77
2023-07-15T11:54:13.811Z,14.27
2023-07-15T11:56:43.925Z,11.40
2023-07-15T11:59:12.305Z,11.63
2023-07-15T12:01:40.766Z,13.70
2023-07-15T12:04:17.819Z,13.88
2023-07-15T12:06:51.804Z,13.43
2023-07-15T12:09:18.673Z,15.65
2023-07-15T12:11:46.320Z,12.50
2023-07-15T12:16:41.177Z,13.98
2023-07-15T12:19:12.528Z,13.65
2023-07-15T12:21:40.511Z,13.15
2023-07-15T12:24:07.481Z,16.13
2023-07-15T12:26:34.256Z,12.07
2023-07-15T12:29:01.149Z,12.70
2023-07-15T12:31:27.955Z,14.60
2023-07-15T12:33:54.774Z,14.02
2023-07-15T12:36:21.522Z,11.98
2023-07-15T12:38:48.448Z,10.60
2023-07-15T12:41:15.411Z,10.13
2023-07-15T12:43:42.205Z,13.63
2023-07-15T12:46:08.978Z,12.27
2023-07-15T12:48:35.739Z,12.77
2023-07-15T12:51:02.457Z,11.10
2023-07-15T12:53:29.179Z,10.45
2023-07-15T12:55:55.986Z,13.10
2023-07-15T12:58:23.165Z,15.45
2023-07-15T13:00:51.045Z,13.25
2023-07-15T13:03:18.140Z,14.65
2023-07-15T13:05:45.046Z,12.73
2023-07-15T13:08:15.248Z,10.27
2023-07-15T13:10:43.221Z,14.45
2023-07-15T13:13:10.104Z,10.23
2023-07-15T13:15:36.887Z,14.02
2023-07-15T13:18:03.801Z,13.18
2023-07-15T13:20:30.607Z,12.88
2023-07-15T13:22:57.398Z,12.18
2023-07-15T13:25:24.187Z,13.75
2023-07-15T13:27:51.140Z,14.43
2023-07-15T13:30:17.837Z,11.13
2023-07-15T13:32:44.551Z,10.23
2023-07-15T13:35:11.326Z,12.65
2023-07-15T13:37:37.980Z,12.40
2023-07-15T13:40:07.033Z,11.63
2023-07-15T13:42:33.830Z,10.75
2023-07-15T13:45:00.629Z,8.48
2023-07-15T13:47:27.359Z,10.88
2023-07-15T13:49:54.079Z,10.55
2023-07-15T13:52:20.888Z,10.48
2023-07-15T13:54:49.500Z,12.50
2023-07-15T13:57:16.324Z,13.65
2023-07-15T13:59:43.098Z,10.43
2023-07-15T14:02:14.306Z,14.73
2023-07-15T14:04:41.031Z,14.77
2023-07-15T14:07:10.594Z,12.30
2023-07-15T14:09:37.810Z,13.40
2023-07-15T14:12:05.099Z,11.05
2023-07-15T14:14:31.833Z,10.80
2023-07-15T14:16:58.615Z,13.55
2023-07-15T14:19:26.745Z,17.08
2023-07-15T14:22:05.574Z,15.23
2023-07-15T14:24:41.242Z,13.48
2023-07-15T14:27:08.143Z,11.60
2023-07-15T14:29:34.936Z,14.85
2023-07-15T14:32:04.160Z,13.85
2023-07-15T14:34:32.053Z,12.32
2023-07-15T14:39:25.466Z,12.00
2023-07-15T14:41:52.164Z,11.43
2023-07-15T14:44:19.273Z,15.48
2023-07-15T14:46:46.212Z,14.38
2023-07-15T14:49:12.978Z,12.60
2023-07-15T14:51:39.740Z,19.40
2023-07-15T14:54:06.633Z,12.18
2023-07-15T14:56:33.371Z,12.35
2023-07-15T14:59:02.738Z,13.48
2023-07-15T15:01:31.244Z,13.68
2023-07-15T15:03:58.258Z,16.30
2023-07-15T15:06:25.195Z,15.10
2023-07-15T15:08:51.955Z,16.70
2023-07-15T15:11:18.761Z,17.30
2023-07-15T15:13:50.365Z,16.60
2023-07-15T15:16:17.140Z,16.10
2023-07-15T15:18:47.383Z,18.23
2023-07-15T15:21:15.248Z,16.02
2023-07-15T15:23:42.418Z,13.90
2023-07-15T15:26:09.257Z,13.88
2023-07-15T15:28:36.743Z,12.77
2023-07-15T15:31:03.573Z,16.77
2023-07-15T15:33:30.617Z,14.52
2023-07-15T15:35:57.481Z,12.93
2023-07-15T15:38:24.296Z,18.83
2023-07-15T15:40:50.960Z,16.02
2023-07-15T15:43:17.691Z,74.22
2023-07-15T15:45:44.468Z,78.82
2023-07-15T15:48:11.211Z,66.00
2023-07-15T15:50:37.930Z,19.92
2023-07-15T15:53:04.681Z,25.17
2023-07-15T15:55:31.448Z,19.45
2023-07-15T15:57:58.177Z,21.00
2023-07-15T16:00:25.936Z,34.15
2023-07-15T16:02:52.731Z,14.82
2023-07-15T16:05:19.672Z,17.27
2023-07-15T16:07:46.418Z,15.93
2023-07-15T16:10:14.364Z,16.55
2023-07-15T16:12:42.407Z,15.90
2023-07-15T16:15:09.597Z,17.27
2023-07-15T16:17:36.513Z,41.47
2023-07-15T16:20:06.515Z,15.80
2023-07-15T16:22:33.312Z,15.00
2023-07-15T16:24:59.991Z,13.57
2023-07-15T16:27:26.664Z,14.50
2023-07-15T16:29:53.441Z,16.98
2023-07-15T16:32:20.278Z,14.32
2023-07-15T16:34:47.033Z,13.68
2023-07-15T16:37:13.770Z,12.20
2023-07-15T16:39:40.470Z,16.10
2023-07-15T16:42:07.171Z,16.73
2023-07-15T16:44:33.971Z,14.98
2023-07-15T16:47:00.760Z,12.98
2023-07-15T16:49:27.482Z,12.48
2023-07-15T16:51:54.291Z,16.23
2023-07-15T16:54:20.998Z,15.02
2023-07-15T16:56:47.777Z,15.88
2023-07-15T16:59:14.857Z,15.18
2023-07-15T17:01:41.594Z,15.27
2023-07-15T17:04:08.472Z,13.30
2023-07-15T17:06:35.333Z,13.20
2023-07-15T17:09:02.077Z,14.32
2023-07-15T17:11:28.789Z,21.75
2023-07-15T17:13:55.551Z,15.45
2023-07-15T17:16:22.330Z,15.35
2023-07-15T17:18:49.036Z,16.30
2023-07-15T17:21:16.046Z,15.63
2023-07-15T17:23:42.970Z,17.05
2023-07-15T17:26:09.795Z,16.27
2023-07-15T17:28:36.562Z,15.52
2023-07-15T17:31:03.320Z,22.05
2023-07-15T17:33:30.128Z,21.58
2023-07-15T17:35:56.920Z,17.88
2023-07-15T17:38:23.627Z,15.27
2023-07-15T17:40:50.926Z,13.88
2023-07-15T17:43:17.876Z,17.60
2023-07-15T17:45:45.085Z,11.73
2023-07-15T17:48:11.918Z,15.10
2023-07-15T17:50:38.788Z,18.98
2023-07-15T17:53:05.600Z,19.98
2023-07-15T17:55:32.361Z,15.90
2023-07-15T17:57:59.106Z,18.65
2023-07-15T18:00:26.640Z,16.80
2023-07-15T18:05:20.491Z,16.42
2023-07-15T18:07:47.292Z,16.20
2023-07-15T18:10:14.205Z,17.48
2023-07-15T18:12:41.004Z,15.55
2023-07-15T18:15:08.321Z,14.40
2023-07-15T18:17:35.077Z,13.82
2023-07-15T18:20:01.871Z,15.80
2023-07-15T18:22:28.662Z,14.07
2023-07-15T18:24:55.403Z,14.75
2023-07-15T18:27:22.242Z,15.10
2023-07-15T18:29:49.071Z,17.33
2023-07-15T18:32:15.980Z,13.27
2023-07-15T18:34:42.750Z,20.48
2023-07-15T18:37:09.570Z,18.90
2023-07-15T18:39:36.408Z,13.77
2023-07-15T18:42:03.577Z,18.15
2023-07-15T18:44:30.383Z,18.35
2023-07-15T18:46:57.152Z,12.20
2023-07-15T18:49:24.561Z,20.15
2023-07-15T18:51:54.164Z,17.98
2023-07-15T18:54:20.942Z,18.73
2023-07-15T18:56:47.846Z,15.90
2023-07-15T18:59:14.559Z,23.77
2023-07-15T19:01:42.010Z,15.88
2023-07-15T19:04:09.504Z,14.35
2023-07-15T19:06:36.291Z,15.18
2023-07-15T19:09:03.073Z,15.82
2023-07-15T19:11:29.775Z,13.55
2023-07-15T19:13:56.495Z,11.60
2023-07-15T19:16:23.213Z,14.95
2023-07-15T19:18:49.944Z,18.10
2023-07-15T19:21:16.863Z,12.10
2023-07-15T19:23:43.841Z,17.00
2023-07-15T19:26:10.654Z,16.33
2023-07-15T19:28:37.363Z,13.98
2023-07-15T19:31:04.164Z,16.40
2023-07-15T19:33:32.322Z,14.75
2023-07-15T19:35:59.065Z,16.48
2023-07-15T19:38:25.828Z,14.68
2023-07-15T19:40:52.519Z,14.63
2023-07-15T19:43:19.207Z,9.77
2023-07-15T19:45:45.922Z,10.18
2023-07-15T19:48:12.735Z,11.95
2023-07-15T19:50:39.447Z,10.70
2023-07-15T19:53:06.144Z,14.38
2023-07-15T19:55:32.979Z,14.02
2023-07-15T19:57:59.694Z,15.48
2023-07-15T20:00:26.518Z,12.63
2023-07-15T20:02:53.426Z,12.40
2023-07-15T20:05:20.185Z,13.13
2023-07-15T20:07:46.910Z,13.98
2023-07-15T20:10:13.672Z,13.02
2023-07-15T20:12:40.355Z,16.92
2023-07-15T20:15:07.485Z,11.60
2023-07-15T20:17:34.253Z,16.63
2023-07-15T20:20:01.026Z,11.05
2023-07-15T20:22:27.867Z,13.27
2023-07-15T20:24:55.008Z,12.27
2023-07-15T20:27:21.775Z,13.02
2023-07-15T20:29:48.436Z,14.40
2023-07-15T20:32:16.820Z,16.55
2023-07-15T20:34:43.673Z,12.45
2023-07-15T20:37:10.428Z,16.13
2023-07-15T20:39:37.199Z,11.23
2023-07-15T20:42:05.013Z,11.85
2023-07-15T20:46:58.344Z,13.35
2023-07-15T20:49:25.161Z,13.65
2023-07-15T20:51:51.850Z,13.20
2023-07-15T20:54:18.583Z,11.73
2023-07-15T20:56:45.255Z,14.77
2023-07-15T20:59:11.991Z,17.75
2023-07-15T21:01:38.741Z,14.10
2023-07-15T21:04:05.614Z,14.07
2023-07-15T21:06:32.910Z,16.30
2023-07-15T21:08:59.714Z,18.45
2023-07-15T21:11:27.550Z,16.52
2023-07-15T21:13:54.261Z,16.80
2023-07-15T21:18:47.745Z,16.30
2023-07-15T21:21:14.422Z,12.73
2023-07-15T21:23:41.130Z,15.48
2023-07-15T21:26:08.004Z,11.93
2023-07-15T21:28:36.188Z,11.02
2023-07-15T21:31:03.433Z,19.17
2023-07-15T21:33:30.430Z,19.13
2023-07-15T21:35:57.106Z,16.55
2023-07-15T21:38:24.288Z,12.10
2023-07-15T21:40:51.036Z,13.77
2023-07-15T21:43:17.813Z,15.85
2023-07-15T21:45:44.676Z,15.02
2023-07-15T21:48:11.650Z,18.73
2023-07-15T21:50:38.357Z,18.05
2023-07-15T21:53:05.116Z,12.85
2023-07-15T21:55:31.816Z,15.30
2023-07-15T21:57:58.511Z,14.25
2023-07-15T22:00:25.487Z,15.27
2023-07-15T22:02:52.258Z,14.68
2023-07-15T22:05:19.100Z,14.05
2023-07-15T22:07:45.825Z,12.73
2023-07-15T22:10:12.524Z,11.25
2023-07-15T22:12:39.251Z,15.68
2023-07-15T22:15:06.539Z,16.08
2023-07-15T22:17:33.277Z,13.88
2023-07-15T22:19:59.981Z,12.98
2023-07-15T22:22:26.790Z,13.63
2023-07-15T22:24:53.506Z,15.48
2023-07-15T22:27:20.248Z,15.48
2023-07-15T22:29:46.949Z,18.05
2023-07-15T22:32:13.631Z,15.35
2023-07-15T22:34:40.326Z,17.17
2023-07-15T22:37:07.217Z,15.10
2023-07-15T22:39:33.929Z,17.90
2023-07-15T22:42:00.634Z,12.60
2023-07-15T22:44:27.360Z,13.27
2023-07-15T22:46:54.077Z,12.15
2023-07-15T22:49:20.897Z,11.20
2023-07-15T22:51:47.588Z,14.70
2023-07-15T22:54:14.868Z,14.20
2023-07-15T22:56:41.538Z,11.73
2023-07-15T22:59:08.259Z,17.13
2023-07-15T23:01:35.035Z,14.13
2023-07-15T23:04:01.881Z,12.57
2023-07-15T23:06:28.664Z,13.10
2023-07-15T23:08:55.401Z,11.82
2023-07-15T23:11:22.083Z,13.10
2023-07-15T23:13:48.838Z,16.17
2023-07-15T23:16:17.932Z,14.85
2023-07-15T23:18:46.628Z,12.57
2023-07-15T23:21:13.503Z,12.77
2023-07-15T23:23:40.295Z,16.95
2023-07-15T23:26:07.025Z,11.82
2023-07-15T23:28:33.755Z,12.48
2023-07-15T23:31:00.666Z,12.75
2023-07-15T23:33:27.562Z,11.15
2023-07-15T23:35:54.796Z,9.85
2023-07-15T23:38:21.657Z,11.65
2023-07-15T23:40:48.378Z,12.15
2023-07-15T23:43:15.169Z,11.25
2023-07-15T23:45:41.838Z,13.52
2023-07-15T23:48:08.794Z,14.82
2023-07-15T23:50:35.682Z,15.88
2023-07-15T23:53:02.405Z,14.25
2023-07-15T23:55:29.126Z,13.95
2023-07-15T23:57:55.895Z,14.70
